Startpagina
METAR-TAF:

METAR-TAF

Vliegvelden :

Luchthaven Stockholm-Arlanda

Stockholm-Arlanda, Zweden

breedte: 59-39N, lengte: 017-57E, hoogte: 38 m

Actueel weer

Dit bericht is 22 minuten geleden gemaakt, om 20:50 UTC
Wind 6 kt uit het zuiden
Temperatuur 15°C
Vochtigheid 55%
Druk 1018 hPa
Zicht 10 km of meer
geen wolken onder 1500 m en geen cumulonimbus

METAR: ESSA 222050Z 17006KT CAVOK 15/06 Q1018 NOSIG

Tijdstip: 23:12 (21:12 UTC)

Verwachting

Dit bericht is 3 uur en het 42 minuten geleden gemaakt, om 17:30 UTC
Verwachting geldig van 22 om 18 UTC tot 23 om 18 UTC
Wind 10 kt uit het zuidzuidoosten
Zicht 10 km of meer
geen wolken onder 1500 m en geen cumulonimbus
Wijzigt naar
van 23 om 02 UTC tot 23 om 04 UTC
Wind 12 kt uit het noorden

TAF: ESSA 221730Z 2218/2318 16010KT CAVOK BECMG 2302/2304 36012KT

Waarnemingen en weersverwachtingen van meer dan 4000 vliegvelden (METAR en TAF).

De beschikbare stations zijn de gele en rode punten op de kaart.

Ga met uw muis naar het station om de naam te zien.

Klik dan om waarnemingen en weersverwachtingen te zien.

kaart wijzigen: klik op de groene knoppen met een zwart kruis om in te zoomen, op de groene knop met een streepje om uit te zoomen of op de groene pijlen voor aangrenzende kaarten.


METAR-TAF: